Time;durP1;ratioP1;P1;durP2;ratioP2;P2;SDS_P1;SDS_P2;PMS_P1;PMS_P2;Temp;Humidity;BMP_temperature;BMP_pressure;BME280_temperature;BME280_humidity;BME280_pressure;Samples;Min_cycle;Max_cycle;Signal;HPM_P1;HPM_P2
2023/06/16 00:00:37;;;;;;;9.30;4.97;;;;;;;16.64;66.38;101956.00;4992870;28;20054;-77
2023/06/16 00:03:03;;;;;;;12.57;4.70;;;;;;;16.60;66.73;101947.31;4995243;28;20046;-77
2023/06/16 00:05:31;;;;;;;7.38;4.65;;;;;;;16.54;66.54;101957.91;4995875;28;20102;-78
2023/06/16 00:07:59;;;;;;;10.00;4.55;;;;;;;16.51;66.95;101950.00;4994483;28;20122;-77
2023/06/16 00:10:26;;;;;;;9.05;4.55;;;;;;;16.47;66.57;101950.16;4994512;28;20480;-77
2023/06/16 00:12:52;;;;;;;5.10;4.50;;;;;;;16.41;66.39;101948.53;4995241;28;20482;-77
2023/06/16 00:15:20;;;;;;;8.98;4.32;;;;;;;16.37;66.73;101953.34;4993760;28;20531;-77
2023/06/16 00:17:49;;;;;;;9.38;4.25;;;;;;;16.33;66.92;101954.22;4995326;28;20042;-77
2023/06/16 00:20:21;;;;;;;7.18;4.60;;;;;;;16.27;67.13;101956.03;4977087;28;20077;-78
2023/06/16 00:22:47;;;;;;;7.35;4.72;;;;;;;16.26;67.58;101951.09;4995163;28;20051;-77
2023/06/16 00:25:16;;;;;;;4.85;4.45;;;;;;;16.19;68.19;101957.53;4994657;28;20492;-77
2023/06/16 00:27:43;;;;;;;5.25;4.78;;;;;;;16.16;66.90;101949.63;4994534;28;20039;-77
2023/06/16 00:30:10;;;;;;;5.25;4.70;;;;;;;16.14;67.63;101949.31;4994195;28;20043;-77
2023/06/16 00:32:37;;;;;;;7.13;4.63;;;;;;;16.11;67.78;101950.94;4994759;28;20047;-77
2023/06/16 00:35:04;;;;;;;6.05;4.43;;;;;;;16.03;67.93;101944.38;4994590;28;20500;-77
2023/06/16 00:37:32;;;;;;;7.65;5.00;;;;;;;16.00;68.75;101943.34;4994370;28;20043;-77
2023/06/16 00:39:58;;;;;;;5.03;4.57;;;;;;;15.97;67.56;101946.94;4977184;28;20057;-77
2023/06/16 00:42:25;;;;;;;5.47;4.47;;;;;;;15.94;67.12;101941.72;4993558;28;20042;-77
2023/06/16 00:44:51;;;;;;;5.90;4.70;;;;;;;15.93;67.03;101950.97;4994666;28;20055;-77
2023/06/16 00:47:18;;;;;;;7.53;4.70;;;;;;;15.89;67.01;101951.13;4976484;28;20051;-78
2023/06/16 00:49:45;;;;;;;5.18;4.65;;;;;;;15.85;67.58;101947.09;4992966;28;20059;-79
2023/06/16 00:52:14;;;;;;;7.30;4.70;;;;;;;15.82;67.33;101945.28;4976378;28;20054;-78
2023/06/16 00:54:40;;;;;;;11.27;4.80;;;;;;;15.81;66.60;101943.78;4976434;28;20137;-78
2023/06/16 00:57:07;;;;;;;10.35;5.60;;;;;;;15.78;67.13;101940.06;4992237;28;20073;-76
2023/06/16 00:59:34;;;;;;;5.10;4.80;;;;;;;15.72;66.58;101933.78;4994143;28;20047;-76
2023/06/16 01:02:02;;;;;;;13.02;4.80;;;;;;;15.67;67.44;101940.50;4976986;28;20047;-76
2023/06/16 01:04:29;;;;;;;5.00;4.70;;;;;;;15.66;67.29;101940.94;4993516;28;20535;-78
2023/06/16 01:07:25;;;;;;;7.10;5.10;;;;;;;15.62;67.44;101945.69;4976018;28;20486;-78
2023/06/16 01:10:22;;;;;;;5.18;4.68;;;;;;;15.59;66.21;101936.63;4992462;28;20058;-78
2023/06/16 01:12:55;;;;;;;9.75;4.95;;;;;;;15.54;67.04;101939.88;4976820;28;20043;-78
2023/06/16 01:15:25;;;;;;;4.90;4.60;;;;;;;15.51;66.42;101937.31;4976041;28;20081;-79
2023/06/16 01:17:55;;;;;;;6.68;4.32;;;;;;;15.49;66.28;101940.44;4993688;28;20090;-78
2023/06/16 01:20:37;;;;;;;7.45;4.68;;;;;;;15.48;66.61;101935.53;4992108;28;20055;-78
2023/06/16 01:23:26;;;;;;;7.30;4.75;;;;;;;15.45;66.01;101942.53;4994199;28;20126;-79
2023/06/16 01:25:56;;;;;;;5.80;4.57;;;;;;;15.42;65.68;101934.59;4992173;28;20054;-78
2023/06/16 01:28:30;;;;;;;8.45;4.60;;;;;;;15.40;65.75;101939.66;4975676;28;20575;-78
2023/06/16 01:30:59;;;;;;;5.32;4.43;;;;;;;15.37;65.79;101943.25;4994269;28;20816;-77
2023/06/16 01:33:29;;;;;;;10.18;5.03;;;;;;;15.31;65.50;101943.06;4993188;28;20097;-77
2023/06/16 01:35:57;;;;;;;7.20;4.93;;;;;;;15.29;65.21;101943.50;4976202;28;20405;-77
2023/06/16 01:38:26;;;;;;;5.07;4.68;;;;;;;15.28;65.17;101939.34;4993136;28;20575;-77
2023/06/16 01:40:53;;;;;;;6.13;5.05;;;;;;;15.24;65.59;101941.41;4975467;28;20109;-77
2023/06/16 01:43:21;;;;;;;5.45;4.60;;;;;;;15.23;64.72;101945.28;4975338;28;20055;-77
2023/06/16 01:45:50;;;;;;;5.72;4.65;;;;;;;15.20;64.96;101942.72;4993787;28;20051;-77
2023/06/16 01:48:19;;;;;;;7.85;4.70;;;;;;;15.20;64.65;101942.72;4975800;28;20043;-77
2023/06/16 01:50:46;;;;;;;5.05;4.63;;;;;;;15.19;64.25;101941.25;4992333;28;20055;-77
2023/06/16 01:53:12;;;;;;;7.80;4.90;;;;;;;15.17;64.82;101935.59;4993305;28;20496;-77
2023/06/16 01:55:45;;;;;;;9.27;4.90;;;;;;;15.16;64.15;101939.47;4991363;28;20130;-77
2023/06/16 01:58:11;;;;;;;6.10;5.43;;;;;;;15.14;63.91;101937.22;4975446;28;20051;-77
2023/06/16 02:00:43;;;;;;;5.22;4.72;;;;;;;15.14;63.33;101939.91;4993239;28;20047;-77
2023/06/16 02:03:19;;;;;;;9.15;4.70;;;;;;;15.13;63.38;101940.34;4993431;28;20563;-77
2023/06/16 02:05:50;;;;;;;5.30;4.80;;;;;;;15.11;62.96;101938.09;4993304;28;20043;-77
2023/06/16 02:08:21;;;;;;;;;;;;;;;15.11;62.68;101932.00;4975371;28;20050;-77
2023/06/16 02:10:50;;;;;;;7.32;4.97;;;;;;;15.05;63.91;101931.06;4993044;28;20074;-77
2023/06/16 02:13:17;;;;;;;5.13;4.72;;;;;;;15.01;64.05;101937.31;4992887;28;20125;-77
2023/06/16 02:15:43;;;;;;;6.45;4.93;;;;;;;14.96;64.41;101935.22;4993214;28;20054;-77
2023/06/16 02:18:11;;;;;;;5.47;4.97;;;;;;;14.94;63.95;101942.94;4974933;28;20469;-77
2023/06/16 02:20:37;;;;;;;5.55;5.00;;;;;;;14.91;64.99;101940.38;4992945;28;20047;-77
2023/06/16 02:23:04;;;;;;;7.30;5.40;;;;;;;14.87;65.18;101935.16;4975998;28;20057;-77
2023/06/16 02:25:31;;;;;;;6.40;5.05;;;;;;;14.81;65.55;101931.56;4992761;28;20121;-77
2023/06/16 02:27:57;;;;;;;4.70;4.40;;;;;;;14.79;65.85;101933.94;4993224;28;20054;-78
2023/06/16 02:30:24;;;;;;;6.75;5.25;;;;;;;14.76;66.27;101931.41;4992655;28;20528;-77
2023/06/16 02:32:51;;;;;;;5.75;5.22;;;;;;;14.72;66.34;101944.19;4992932;28;20130;-77
2023/06/16 02:35:28;;;;;;;9.15;5.28;;;;;;;14.65;66.55;101929.84;4974659;28;20097;-77
2023/06/16 02:37:55;;;;;;;6.13;5.40;;;;;;;14.63;66.25;101934.16;4975281;28;20510;-77
2023/06/16 02:40:22;;;;;;;8.00;5.60;;;;;;;14.56;67.46;101942.44;4990352;28;20051;-77
2023/06/16 02:42:49;;;;;;;5.50;5.00;;;;;;;14.56;67.89;101935.16;4975321;28;20043;-78
2023/06/16 02:45:17;;;;;;;5.20;4.75;;;;;;;14.54;67.95;101936.78;4974869;28;20106;-77
2023/06/16 02:47:44;;;;;;;5.60;5.10;;;;;;;14.50;68.12;101944.19;4975302;28;20166;-77
2023/06/16 02:50:11;;;;;;;6.20;5.18;;;;;;;14.47;67.81;101940.44;4990933;28;20110;-77
2023/06/16 02:52:41;;;;;;;5.95;4.95;;;;;;;14.46;68.67;101940.88;4992523;28;20050;-77
2023/06/16 02:55:09;;;;;;;9.57;5.40;;;;;;;14.42;68.18;101940.25;4974303;28;20057;-77
2023/06/16 02:57:42;;;;;;;6.55;5.25;;;;;;;14.38;69.32;101942.31;4992715;28;20037;-77
2023/06/16 03:00:11;;;;;;;8.93;5.03;;;;;;;14.33;69.76;101938.25;4992270;28;20054;-76
2023/06/16 03:02:57;;;;;;;10.13;5.10;;;;;;;14.29;69.46;101934.97;4992451;28;20047;-78
2023/06/16 03:05:27;;;;;;;5.38;4.90;;;;;;;14.26;69.59;101933.16;4990725;28;20057;-77
2023/06/16 03:07:54;;;;;;;6.45;5.10;;;;;;;14.21;69.95;101939.06;4992053;28;20039;-76
2023/06/16 03:10:23;;;;;;;7.82;5.35;;;;;;;14.18;68.93;101943.34;4974253;28;20059;-77
2023/06/16 03:13:01;;;;;;;5.85;5.25;;;;;;;14.13;70.00;101938.56;4991018;28;20090;-77
2023/06/16 03:15:30;;;;;;;6.93;5.75;;;;;;;14.08;69.55;101944.47;4974157;28;20202;-77
2023/06/16 03:17:57;;;;;;;5.72;4.90;;;;;;;14.04;70.31;101943.81;4974887;28;20047;-77
2023/06/16 03:20:27;;;;;;;5.70;5.10;;;;;;;14.02;69.99;101941.59;4990534;28;20538;-77
2023/06/16 03:23:01;;;;;;;11.07;5.20;;;;;;;14.01;69.70;101944.69;4974095;28;20109;-77
2023/06/16 03:25:30;;;;;;;5.50;5.00;;;;;;;13.97;70.50;101944.84;4974007;28;20133;-77
2023/06/16 03:27:57;;;;;;;8.55;5.07;;;;;;;13.94;70.66;101950.31;4974641;28;20133;-77
2023/06/16 03:30:23;;;;;;;5.07;4.68;;;;;;;13.90;71.16;101945.06;4977200;28;20054;-78
2023/06/16 03:33:06;;;;;;;5.60;4.53;;;;;;;13.87;71.51;101943.25;4995333;28;20503;-77
2023/06/16 03:35:35;;;;;;;6.35;5.10;;;;;;;13.84;70.83;101941.44;4993603;28;20472;-76
2023/06/16 03:38:05;;;;;;;5.30;4.90;;;;;;;13.81;70.86;101939.63;4993367;28;20063;-76
2023/06/16 03:40:34;;;;;;;7.90;4.65;;;;;;;13.80;70.90;101940.81;4977473;28;20059;-76
2023/06/16 03:43:02;;;;;;;9.70;4.82;;;;;;;13.75;71.81;101938.69;4994331;28;20189;-78
2023/06/16 03:45:30;;;;;;;6.13;4.80;;;;;;;13.74;71.72;101944.47;4993674;28;20046;-77
2023/06/16 03:47:56;;;;;;;8.35;4.80;;;;;;;13.71;72.01;101938.03;4977713;28;20042;-77
2023/06/16 03:50:23;;;;;;;7.95;5.45;;;;;;;13.70;71.23;101944.56;4993393;28;20058;-78
2023/06/16 03:52:50;;;;;;;8.77;5.00;;;;;;;13.69;71.46;101938.47;4994987;28;20045;-77
2023/06/16 03:55:36;;;;;;;10.50;4.97;;;;;;;13.73;71.27;101942.97;4979776;28;20507;-77
2023/06/16 03:58:02;;;;;;;5.82;5.30;;;;;;;13.73;72.18;101942.97;4977508;28;20594;-77
2023/06/16 04:00:29;;;;;;;5.45;4.95;;;;;;;13.73;71.34;101943.72;4977191;28;20079;-77
2023/06/16 04:02:56;;;;;;;5.28;4.72;;;;;;;13.75;72.26;101943.28;4993882;28;20130;-78
2023/06/16 04:05:26;;;;;;;10.68;5.82;;;;;;;13.74;72.21;101947.88;4976662;28;20137;-78
2023/06/16 04:07:56;;;;;;;6.15;5.55;;;;;;;13.74;72.25;101947.88;4993308;28;20105;-77
2023/06/16 04:10:23;;;;;;;7.28;4.82;;;;;;;13.73;72.43;101943.72;4976926;28;20070;-77
2023/06/16 04:12:50;;;;;;;6.38;5.78;;;;;;;13.74;72.48;101939.84;4993375;28;20046;-77
2023/06/16 04:15:16;;;;;;;6.93;5.45;;;;;;;13.73;72.55;101941.03;4993134;28;20059;-77
2023/06/16 04:17:43;;;;;;;7.68;5.97;;;;;;;13.74;72.39;101937.19;4977444;28;20042;-76
2023/06/16 04:20:11;;;;;;;5.70;5.18;;;;;;;13.78;72.26;101947.78;4976526;28;20057;-78
2023/06/16 04:22:40;;;;;;;7.13;5.20;;;;;;;13.80;73.26;101945.41;4977068;28;20085;-77
2023/06/16 04:25:09;;;;;;;6.70;5.30;;;;;;;13.84;73.26;101946.03;4992947;28;20050;-77
2023/06/16 04:27:36;;;;;;;5.90;5.30;;;;;;;13.86;73.34;101946.38;4976693;28;20499;-77
2023/06/16 04:30:05;;;;;;;6.72;5.60;;;;;;;13.89;73.57;101940.91;4977070;28;20051;-77
2023/06/16 04:32:36;;;;;;;5.47;4.97;;;;;;;13.88;73.51;101941.31;4993346;28;20054;-76
2023/06/16 04:35:06;;;;;;;7.00;5.18;;;;;;;13.94;73.98;101942.28;4976267;28;20146;-76
2023/06/16 04:37:34;;;;;;;9.52;5.13;;;;;;;14.02;73.90;101948.88;4992900;28;20054;-76
2023/06/16 04:40:03;;;;;;;5.88;5.35;;;;;;;14.18;73.55;101953.31;4975735;28;20109;-76
2023/06/16 04:42:33;;;;;;;7.75;5.15;;;;;;;14.43;72.65;101952.47;4993105;28;20069;-76
2023/06/16 04:45:00;;;;;;;7.57;5.63;;;;;;;14.47;73.42;101947.75;4976924;28;20046;-77
2023/06/16 04:47:29;;;;;;;7.43;5.78;;;;;;;14.76;72.61;101952.84;4992770;28;20074;-77
2023/06/16 04:49:56;;;;;;;6.60;5.57;;;;;;;15.91;69.70;101951.41;4976262;28;20051;-76
2023/06/16 04:52:24;;;;;;;19.20;6.85;;;;;;;17.26;64.82;101958.88;4993741;28;20046;-76
2023/06/16 04:54:51;;;;;;;11.13;5.85;;;;;;;18.49;61.62;101961.28;4976502;28;20058;-75
2023/06/16 04:57:18;;;;;;;11.80;6.18;;;;;;;20.39;55.49;101966.50;4994129;28;20101;-76
2023/06/16 04:59:44;;;;;;;10.75;6.45;;;;;;;22.12;50.62;101964.72;4976723;28;20130;-76
2023/06/16 05:02:11;;;;;;;10.88;6.00;;;;;;;23.33;47.24;101967.13;4993246;28;20053;-76
2023/06/16 05:04:42;;;;;;;14.77;6.57;;;;;;;23.84;45.45;101962.22;4976499;28;20078;-76
2023/06/16 05:07:12;;;;;;;8.73;6.00;;;;;;;23.72;45.03;101972.41;4976963;28;20057;-77
2023/06/16 05:09:38;;;;;;;6.68;6.05;;;;;;;23.74;45.43;101972.66;4976206;28;20055;-76
2023/06/16 05:12:08;;;;;;;8.90;5.97;;;;;;;24.16;44.74;101968.69;4993542;28;20051;-77
2023/06/16 05:14:35;;;;;;;9.95;7.80;;;;;;;24.91;42.90;101984.66;4961053;28;20479;-77
2023/06/16 05:17:03;;;;;;;13.48;7.00;;;;;;;25.45;42.41;101975.69;4993637;28;20078;-77
2023/06/16 05:19:31;;;;;;;8.65;6.18;;;;;;;25.77;40.94;101970.31;4976106;28;20807;-77
2023/06/16 05:21:59;;;;;;;7.15;6.32;;;;;;;26.25;40.41;101975.56;4994638;28;20046;-76
2023/06/16 05:24:26;;;;;;;7.32;6.60;;;;;;;26.57;39.82;101969.34;4994191;28;20038;-77
2023/06/16 05:26:53;;;;;;;15.70;6.93;;;;;;;26.61;39.60;101969.78;4993119;28;20047;-78
2023/06/16 05:29:20;;;;;;;7.25;6.45;;;;;;;26.89;39.03;101972.75;4976522;28;20494;-77
2023/06/16 05:31:47;;;;;;;11.98;6.68;;;;;;;26.88;39.07;101965.06;4976743;28;20084;-74
2023/06/16 05:34:14;;;;;;;12.00;7.10;;;;;;;27.01;38.75;101973.31;4976299;28;20051;-72
2023/06/16 05:36:40;;;;;;;12.98;6.97;;;;;;;27.11;38.16;101974.34;4976317;28;20059;-74
2023/06/16 05:39:11;;;;;;;7.80;6.20;;;;;;;27.03;39.71;101975.50;4976431;28;20050;-74
2023/06/16 05:41:38;;;;;;;12.52;6.43;;;;;;;27.12;38.36;101975.84;4992728;28;20057;-74
2023/06/16 05:44:09;;;;;;;12.00;6.75;;;;;;;26.91;37.67;101980.41;4993002;28;20075;-73
2023/06/16 05:46:37;;;;;;;11.95;6.65;;;;;;;26.54;38.59;101982.06;4975960;28;20141;-73
2023/06/16 05:49:04;;;;;;;11.90;6.65;;;;;;;26.39;38.94;101981.81;4992333;28;20062;-74
2023/06/16 05:51:31;;;;;;;6.88;6.30;;;;;;;26.12;39.69;101980.97;4991742;28;20526;-75
2023/06/16 05:53:57;;;;;;;9.40;6.72;;;;;;;25.79;39.88;101984.19;4976715;28;20547;-74
2023/06/16 05:56:25;;;;;;;13.05;6.63;;;;;;;25.47;41.59;101979.38;4975779;28;20094;-74
2023/06/16 05:58:52;;;;;;;12.25;6.43;;;;;;;25.45;40.92;101979.13;4976095;28;20098;-74
2023/06/16 06:01:18;;;;;;;10.27;7.07;;;;;;;25.48;41.00;101991.00;4993793;28;20122;-74
2023/06/16 06:03:46;;;;;;;7.53;6.47;;;;;;;25.35;42.35;101993.63;4992281;28;20050;-74
2023/06/16 06:06:16;;;;;;;7.78;7.15;;;;;;;25.33;41.62;101991.41;4976247;28;20055;-74
2023/06/16 06:08:44;;;;;;;12.00;6.55;;;;;;;25.18;42.49;101996.56;4992262;28;20078;-75
2023/06/16 06:11:12;;;;;;;8.68;6.22;;;;;;;25.17;42.22;102000.53;4976183;28;20053;-75
2023/06/16 06:13:39;;;;;;;11.23;6.85;;;;;;;24.91;42.33;101993.56;4991833;28;20051;-74
2023/06/16 06:16:06;;;;;;;11.50;6.05;;;;;;;24.91;42.77;101998.28;4975135;28;21172;-75
2023/06/16 06:18:33;;;;;;;10.05;7.25;;;;;;;24.64;42.40;101997.28;4991933;28;20869;-73
2023/06/16 06:21:00;;;;;;;8.65;6.47;;;;;;;24.52;44.02;101998.63;4975906;28;20043;-73
2023/06/16 06:23:28;;;;;;;12.32;6.75;;;;;;;24.44;44.72;101998.44;4975671;28;20590;-74
2023/06/16 06:25:56;;;;;;;8.55;6.30;;;;;;;24.52;44.54;102012.22;4992001;28;20051;-74
2023/06/16 06:28:25;;;;;;;9.88;7.10;;;;;;;24.49;43.61;102005.81;4991627;28;20531;-73
2023/06/16 06:30:53;;;;;;;9.38;6.32;;;;;;;24.53;43.05;101998.13;4991783;28;20200;-72
2023/06/16 06:33:20;;;;;;;7.53;5.63;;;;;;;24.50;43.32;102003.84;4991735;28;20051;-73
2023/06/16 06:35:48;;;;;;;8.57;6.00;;;;;;;24.48;43.05;102003.59;4991863;28;20102;-74
2023/06/16 06:38:15;;;;;;;11.85;5.72;;;;;;;24.54;43.42;102013.19;4991702;28;20078;-73
2023/06/16 06:40:42;;;;;;;8.80;5.72;;;;;;;24.65;42.95;102006.19;4991408;28;20110;-73
2023/06/16 06:43:11;;;;;;;9.15;5.80;;;;;;;24.65;42.82;102014.38;4991878;28;20053;-79
2023/06/16 06:45:51;;;;;;;7.30;5.40;;;;;;;24.60;42.94;102005.00;4975060;28;20490;-79
2023/06/16 06:48:20;;;;;;;5.88;5.47;;;;;;;24.59;42.27;102006.97;4991773;28;20499;-79
2023/06/16 06:50:52;;;;;;;5.43;4.97;;;;;;;24.64;42.87;102004.72;4991894;28;20155;-80
2023/06/16 06:53:18;;;;;;;7.22;6.25;;;;;;;24.72;42.89;102005.66;4991602;28;20134;-80
2023/06/16 06:55:45;;;;;;;11.20;5.60;;;;;;;24.74;42.92;102001.16;4993972;28;20047;-80
2023/06/16 06:58:12;;;;;;;11.20;5.13;;;;;;;24.83;41.89;102003.53;5000914;28;20126;-80
2023/06/16 07:00:38;;;;;;;6.05;5.30;;;;;;;24.94;42.76;102003.44;4992875;28;20039;-81
2023/06/16 07:03:05;;;;;;;12.07;5.57;;;;;;;24.89;42.08;102001.50;4993276;28;20051;-78
2023/06/16 07:05:34;;;;;;;8.07;5.30;;;;;;;24.98;42.18;102003.19;4994477;28;20135;-77
2023/06/16 07:08:04;;;;;;;5.78;5.10;;;;;;;25.02;42.57;102005.63;4994446;28;20051;-76
2023/06/16 07:10:32;;;;;;;11.23;5.35;;;;;;;25.14;40.84;102007.75;4996538;28;20134;-78
2023/06/16 07:12:59;;;;;;;4.55;4.15;;;;;;;25.17;41.71;102001.28;4994871;28;20043;-78
2023/06/16 07:15:26;;;;;;;5.53;4.65;;;;;;;25.07;40.83;102004.84;5003647;28;20126;-78
2023/06/16 07:17:52;;;;;;;5.25;4.50;;;;;;;25.20;39.89;102004.94;4978703;28;20498;-78
2023/06/16 07:20:19;;;;;;;7.78;4.07;;;;;;;25.40;41.26;102004.47;4995912;28;20599;-78
2023/06/16 07:22:47;;;;;;;8.48;4.30;;;;;;;25.53;39.26;102010.03;4995876;28;20524;-78
2023/06/16 07:25:15;;;;;;;7.65;4.68;;;;;;;25.59;39.16;102010.66;4978115;28;20050;-79
2023/06/16 07:27:43;;;;;;;6.13;4.40;;;;;;;25.61;38.66;102007.44;4977128;28;20055;-78
2023/06/16 07:30:10;;;;;;;4.40;4.00;;;;;;;25.74;36.61;102007.53;4994651;28;20515;-79
2023/06/16 07:32:39;;;;;;;4.68;4.05;;;;;;;25.96;36.45;102011.25;4996248;28;20053;-79
2023/06/16 07:35:08;;;;;;;5.63;3.88;;;;;;;26.07;36.71;102003.59;4995436;28;20051;-80
2023/06/16 07:37:34;;;;;;;5.82;3.75;;;;;;;26.15;36.51;102006.47;4994551;28;20122;-81
2023/06/16 07:40:01;;;;;;;7.07;4.20;;;;;;;26.19;35.69;102015.09;4994860;28;20346;-80
2023/06/16 07:42:31;;;;;;;12.45;3.83;;;;;;;26.28;35.02;102011.25;4977739;28;20054;-79
2023/06/16 07:44:57;;;;;;;4.22;3.83;;;;;;;26.41;34.97;102006.59;4994600;28;20122;-80
2023/06/16 07:47:24;;;;;;;4.07;3.78;;;;;;;26.53;35.61;102007.16;4977069;28;20440;-78
2023/06/16 07:49:51;;;;;;;8.18;4.22;;;;;;;26.61;34.48;102007.28;4994078;28;20055;-80
2023/06/16 07:52:18;;;;;;;3.95;3.65;;;;;;;26.65;34.09;102010.44;4994931;28;20050;-79
2023/06/16 07:54:45;;;;;;;6.68;3.95;;;;;;;26.84;33.51;102008.34;4977976;28;20050;-75
2023/06/16 07:57:12;;;;;;;5.03;3.47;;;;;;;26.94;33.30;102005.97;4995571;28;20058;-74
2023/06/16 07:59:38;;;;;;;7.47;3.53;;;;;;;26.96;32.15;102004.19;4994818;28;20558;-77
2023/06/16 08:02:05;;;;;;;5.45;3.97;;;;;;;27.14;32.54;102003.38;4995463;28;20074;-76
2023/06/16 08:04:32;;;;;;;6.32;3.70;;;;;;;27.29;32.84;102002.81;4995088;28;20070;-76
2023/06/16 08:06:59;;;;;;;5.35;3.50;;;;;;;27.34;32.83;102001.97;4995273;28;20106;-76
2023/06/16 08:09:26;;;;;;;4.07;3.78;;;;;;;27.46;32.57;101999.75;4994757;28;20054;-75
2023/06/16 08:11:53;;;;;;;8.15;3.70;;;;;;;27.65;32.34;102000.38;4994385;28;20133;-76
2023/06/16 08:14:19;;;;;;;6.43;3.75;;;;;;;27.77;32.83;101996.13;4961093;28;20058;-76
2023/06/16 08:16:46;;;;;;;3.80;3.50;;;;;;;27.92;31.88;101995.56;4995639;28;20137;-76
2023/06/16 08:19:12;;;;;;;4.63;3.30;;;;;;;28.06;31.10;101990.75;4994970;28;20456;-76
2023/06/16 08:21:39;;;;;;;7.88;3.10;;;;;;;28.23;30.04;101998.63;4994907;28;20068;-76
2023/06/16 08:24:06;;;;;;;2.95;2.80;;;;;;;28.29;29.50;101993.75;4994821;28;20122;-76
2023/06/16 08:26:32;;;;;;;3.35;3.15;;;;;;;28.40;29.02;101987.97;4994724;28;20512;-77
2023/06/16 08:28:59;;;;;;;5.30;3.08;;;;;;;28.41;29.26;101992.19;4995227;28;20054;-76
2023/06/16 08:31:28;;;;;;;6.05;3.25;;;;;;;28.65;29.06;101991.84;4976031;28;20107;-76
2023/06/16 08:33:55;;;;;;;5.10;3.22;;;;;;;28.73;28.89;101992.63;4993899;28;20050;-76
2023/06/16 08:36:23;;;;;;;11.40;3.13;;;;;;;28.92;27.91;101986.91;4994874;28;20488;-76
2023/06/16 08:38:52;;;;;;;3.03;2.88;;;;;;;28.99;27.81;101988.22;4993734;28;20098;-77
2023/06/16 08:41:19;;;;;;;3.78;3.13;;;;;;;28.98;28.42;101986.75;4994394;28;20047;-77
2023/06/16 08:43:49;;;;;;;4.65;3.50;;;;;;;29.12;27.83;101988.13;4976916;28;20047;-76
2023/06/16 08:46:15;;;;;;;4.60;3.35;;;;;;;29.17;28.74;101984.50;4994152;28;20047;-76
2023/06/16 08:48:42;;;;;;;3.70;3.40;;;;;;;29.23;27.83;101979.56;4994851;28;20105;-76
2023/06/16 08:51:13;;;;;;;6.15;3.10;;;;;;;29.14;27.55;101980.09;4977356;28;20050;-77
2023/06/16 08:53:41;;;;;;;5.68;3.38;;;;;;;29.14;28.62;101980.81;4994800;28;20046;-80
2023/06/16 08:56:10;;;;;;;4.90;3.72;;;;;;;29.21;28.68;101976.63;4994423;28;20051;-77
2023/06/16 08:58:40;;;;;;;3.83;3.53;;;;;;;29.46;28.46;101974.22;4993695;28;20182;-77
2023/06/16 09:01:07;;;;;;;5.55;3.10;;;;;;;29.68;27.85;101984.50;4993895;28;20039;-77
2023/06/16 09:03:34;;;;;;;4.75;3.25;;;;;;;29.57;27.43;101979.38;4993786;28;20051;-75
2023/06/16 09:06:02;;;;;;;5.00;3.22;;;;;;;29.69;26.65;101982.50;4976217;28;20049;-75
2023/06/16 09:08:29;;;;;;;3.38;3.08;;;;;;;29.70;27.26;101978.47;4993816;28;20047;-75
2023/06/16 09:10:56;;;;;;;3.65;3.35;;;;;;;29.70;25.98;101972.97;4994202;28;20042;-78
2023/06/16 09:13:24;;;;;;;4.03;3.30;;;;;;;29.82;25.56;101985.09;4994057;28;20042;-77
2023/06/16 09:15:56;;;;;;;3.53;3.17;;;;;;;29.81;25.28;101986.38;4994779;28;20054;-77
2023/06/16 09:18:24;;;;;;;3.13;2.87;;;;;;;29.94;24.99;101990.97;4994384;28;20534;-77
2023/06/16 09:20:53;;;;;;;3.88;3.58;;;;;;;30.09;25.25;101980.75;4994649;28;20046;-77
2023/06/16 09:23:30;;;;;;;3.50;3.20;;;;;;;30.01;24.54;101993.72;4993949;28;20051;-77
2023/06/16 09:25:57;;;;;;;3.40;3.20;;;;;;;29.90;25.27;101983.09;4975612;28;20460;-77
2023/06/16 09:28:34;;;;;;;7.13;2.97;;;;;;;30.21;24.75;101980.41;4994498;28;20545;-77
2023/06/16 09:31:08;;;;;;;3.47;3.17;;;;;;;30.30;24.04;101975.09;4976912;28;20555;-77
2023/06/16 09:33:42;;;;;;;3.30;3.10;;;;;;;30.25;23.24;101980.75;4994185;28;20154;-80
2023/06/16 09:36:09;;;;;;;6.38;3.00;;;;;;;30.18;23.96;101982.97;4994987;28;20081;-82
2023/06/16 09:38:37;;;;;;;3.20;3.00;;;;;;;30.33;23.57;101976.00;4994283;28;20397;-80
2023/06/16 09:41:15;;;;;;;3.08;2.88;;;;;;;30.45;23.22;101977.81;4993554;28;20215;-77
2023/06/16 09:43:43;;;;;;;3.40;3.20;;;;;;;30.68;22.32;101969.59;4976922;28;20034;-82
2023/06/16 09:46:13;;;;;;;3.20;3.00;;;;;;;30.84;23.57;101970.25;4994138;28;20052;-77
2023/06/16 09:48:50;;;;;;;3.15;2.95;;;;;;;31.08;23.09;101972.41;4996307;28;20043;-80
2023/06/16 09:51:20;;;;;;;3.50;3.20;;;;;;;31.01;22.60;101975.91;4978482;28;20046;-82
2023/06/16 09:53:47;;;;;;;5.37;2.80;;;;;;;31.11;23.39;101965.78;4976062;28;20123;-82
2023/06/16 09:56:15;;;;;;;3.70;2.90;;;;;;;31.26;22.21;101973.25;4994546;28;20409;-81
2023/06/16 09:58:43;;;;;;;4.97;2.97;;;;;;;31.26;22.25;101967.75;4975652;28;20086;-83
2023/06/16 10:01:10;;;;;;;3.45;3.25;;;;;;;31.17;22.79;101960.84;4994089;28;20138;-82
2023/06/16 10:03:39;;;;;;;3.33;3.13;;;;;;;31.47;22.27;101964.72;4976617;28;20480;-81
2023/06/16 10:06:13;;;;;;;3.10;3.00;;;;;;;31.64;21.78;101958.56;4992689;28;20050;-82
2023/06/16 10:08:42;;;;;;;3.45;3.13;;;;;;;31.74;21.66;101959.44;4993005;28;20082;-82
2023/06/16 10:11:15;;;;;;;4.10;3.35;;;;;;;32.03;21.81;101965.28;4994311;28;20053;-84
2023/06/16 10:13:48;;;;;;;3.03;2.83;;;;;;;32.21;21.70;101957.81;4993867;28;20456;-80
2023/06/16 10:16:17;;;;;;;3.20;3.00;;;;;;;31.99;21.28;101951.22;4997366;28;20051;-82
2023/06/16 10:18:45;;;;;;;3.53;3.17;;;;;;;31.70;21.42;101954.34;4976794;28;20102;-82
2023/06/16 10:21:12;;;;;;;3.15;2.85;;;;;;;31.77;21.80;101958.34;4976662;28;20049;-79
2023/06/16 10:23:39;;;;;;;3.20;2.75;;;;;;;31.58;21.60;101956.06;4981234;28;20050;-80
2023/06/16 10:26:06;;;;;;;4.82;3.70;;;;;;;31.56;21.44;101949.66;4994958;28;20043;-79
2023/06/16 10:28:35;;;;;;;5.75;3.20;;;;;;;31.59;22.03;101951.28;4993606;28;20492;-83
2023/06/16 10:31:04;;;;;;;3.55;3.25;;;;;;;31.55;21.33;101948.19;4994460;28;20070;-83
2023/06/16 10:33:55;;;;;;;3.45;3.25;;;;;;;32.19;22.32;101947.34;4993465;28;20512;-87
2023/06/16 10:36:31;;;;;;;3.33;3.20;;;;;;;32.42;21.82;101945.13;4992542;28;20054;-84
2023/06/16 10:39:07;;;;;;;3.45;3.22;;;;;;;32.52;21.90;101944.50;4994727;28;20053;-87
2023/06/16 10:41:34;;;;;;;4.35;3.47;;;;;;;32.01;20.57;101940.34;4977827;28;20039;-86
2023/06/16 10:44:23;;;;;;;3.72;3.30;;;;;;;32.43;21.47;101949.34;4996385;28;20126;-87
2023/06/16 10:47:08;;;;;;;5.70;3.28;;;;;;;32.55;21.68;101941.34;4993645;28;20047;-86
2023/06/16 10:50:00;;;;;;;3.40;3.20;;;;;;;32.25;22.74;101936.13;4975815;28;20085;-82
2023/06/16 10:52:44;;;;;;;3.10;2.90;;;;;;;32.52;20.46;101933.47;4992925;28;20047;-78
2023/06/16 10:55:28;;;;;;;5.07;3.30;;;;;;;32.71;20.96;101936.41;4976003;28;20908;-84
2023/06/16 10:58:19;;;;;;;5.70;3.22;;;;;;;32.69;21.50;101936.97;4994361;28;20050;-82
2023/06/16 11:01:01;;;;;;;5.60;3.08;;;;;;;32.63;20.95;101933.72;4977234;28;20054;-84
2023/06/16 11:03:33;;;;;;;3.35;3.10;;;;;;;32.41;21.35;101927.13;4976355;28;20109;-84
2023/06/16 11:06:02;;;;;;;4.50;3.22;;;;;;;32.33;20.92;101918.25;4993262;28;20223;-85
2023/06/16 11:08:29;;;;;;;4.13;3.40;;;;;;;32.40;20.91;101935.97;4974268;28;20120;-87
2023/06/16 11:11:05;;;;;;;3.55;3.20;;;;;;;32.43;20.49;101932.81;4993308;28;20651;-86
2023/06/16 11:13:38;;;;;;;3.25;2.95;;;;;;;32.39;20.44;101923.53;4975020;28;20512;-87
2023/06/16 11:16:06;;;;;;;3.65;3.30;;;;;;;32.48;20.54;101923.59;4993127;28;20043;-84
2023/06/16 11:18:33;;;;;;;3.47;3.20;;;;;;;32.27;21.00;101919.78;4993130;28;20051;-87
2023/06/16 11:21:02;;;;;;;3.50;3.20;;;;;;;32.38;20.98;101920.03;4993111;28;20046;-87
2023/06/16 11:23:30;;;;;;;3.50;3.30;;;;;;;32.45;20.46;101915.72;4993834;28;20039;-88
2023/06/16 11:26:15;;;;;;;3.22;3.13;;;;;;;32.48;20.76;101918.06;4993664;28;20560;-85
2023/06/16 11:28:42;;;;;;;4.15;3.17;;;;;;;32.14;20.41;101912.50;4994154;28;20575;-88
2023/06/16 11:31:11;;;;;;;3.53;3.20;;;;;;;32.39;21.09;101915.25;4976800;28;20126;-87
2023/06/16 11:33:39;;;;;;;4.72;3.33;;;;;;;32.41;21.44;101913.38;4996674;28;20042;-87